sensor_id;sensor_type;location;lat;lon;timestamp;temperature;humidity
36374;DHT22;22399;51.346;12.372;2023-09-08T00:00:22;18.60;76.00
36374;DHT22;22399;51.346;12.372;2023-09-08T00:02:52;18.60;76.10
36374;DHT22;22399;51.346;12.372;2023-09-08T00:05:20;18.60;76.20
36374;DHT22;22399;51.346;12.372;2023-09-08T00:07:49;18.50;76.40
36374;DHT22;22399;51.346;12.372;2023-09-08T00:10:17;18.50;76.50
36374;DHT22;22399;51.346;12.372;2023-09-08T00:12:45;18.50;77.40
36374;DHT22;22399;51.346;12.372;2023-09-08T00:15:14;18.40;76.80
36374;DHT22;22399;51.346;12.372;2023-09-08T00:17:42;18.40;77.00
36374;DHT22;22399;51.346;12.372;2023-09-08T00:20:13;18.40;77.20
36374;DHT22;22399;51.346;12.372;2023-09-08T00:22:42;18.30;77.30
36374;DHT22;22399;51.346;12.372;2023-09-08T00:25:10;18.30;77.40
36374;DHT22;22399;51.346;12.372;2023-09-08T00:27:38;18.10;77.50
36374;DHT22;22399;51.346;12.372;2023-09-08T00:30:08;18.10;77.80
36374;DHT22;22399;51.346;12.372;2023-09-08T00:32:38;18.00;78.10
36374;DHT22;22399;51.346;12.372;2023-09-08T00:35:07;18.10;78.40
36374;DHT22;22399;51.346;12.372;2023-09-08T00:37:37;18.10;78.50
36374;DHT22;22399;51.346;12.372;2023-09-08T00:40:07;18.00;78.60
36374;DHT22;22399;51.346;12.372;2023-09-08T00:42:36;18.00;78.80
36374;DHT22;22399;51.346;12.372;2023-09-08T00:45:05;17.90;78.90
36374;DHT22;22399;51.346;12.372;2023-09-08T00:47:34;17.90;79.10
36374;DHT22;22399;51.346;12.372;2023-09-08T00:50:03;17.90;79.20
36374;DHT22;22399;51.346;12.372;2023-09-08T00:52:32;17.80;79.40
36374;DHT22;22399;51.346;12.372;2023-09-08T00:55:02;17.80;79.60
36374;DHT22;22399;51.346;12.372;2023-09-08T00:57:31;17.80;79.80
36374;DHT22;22399;51.346;12.372;2023-09-08T01:00:00;17.80;79.90
36374;DHT22;22399;51.346;12.372;2023-09-08T01:02:31;17.80;80.00
36374;DHT22;22399;51.346;12.372;2023-09-08T01:05:00;17.70;80.10
36374;DHT22;22399;51.346;12.372;2023-09-08T01:07:30;17.70;80.40
36374;DHT22;22399;51.346;12.372;2023-09-08T01:10:00;17.70;80.50
36374;DHT22;22399;51.346;12.372;2023-09-08T01:12:33;17.70;80.60
36374;DHT22;22399;51.346;12.372;2023-09-08T01:15:02;17.70;80.90
36374;DHT22;22399;51.346;12.372;2023-09-08T01:17:34;17.70;80.90
36374;DHT22;22399;51.346;12.372;2023-09-08T01:20:06;17.60;81.00
36374;DHT22;22399;51.346;12.372;2023-09-08T01:22:50;17.60;81.20
36374;DHT22;22399;51.346;12.372;2023-09-08T01:25:25;17.60;81.40
36374;DHT22;22399;51.346;12.372;2023-09-08T01:27:55;17.50;81.50
36374;DHT22;22399;51.346;12.372;2023-09-08T01:30:28;17.40;81.70
36374;DHT22;22399;51.346;12.372;2023-09-08T01:32:59;17.40;81.90
36374;DHT22;22399;51.346;12.372;2023-09-08T01:35:28;17.40;82.10
36374;DHT22;22399;51.346;12.372;2023-09-08T01:37:58;17.40;82.30
36374;DHT22;22399;51.346;12.372;2023-09-08T01:40:28;17.40;82.50
36374;DHT22;22399;51.346;12.372;2023-09-08T01:42:56;17.40;82.50
36374;DHT22;22399;51.346;12.372;2023-09-08T01:45:24;17.30;83.30
36374;DHT22;22399;51.346;12.372;2023-09-08T01:47:53;17.30;82.80
36374;DHT22;22399;51.346;12.372;2023-09-08T01:50:21;17.20;83.00
36374;DHT22;22399;51.346;12.372;2023-09-08T01:52:51;17.20;83.20
36374;DHT22;22399;51.346;12.372;2023-09-08T01:55:21;17.30;83.40
36374;DHT22;22399;51.346;12.372;2023-09-08T01:57:51;17.20;83.40
36374;DHT22;22399;51.346;12.372;2023-09-08T02:00:19;17.20;83.60
36374;DHT22;22399;51.346;12.372;2023-09-08T02:02:48;17.20;83.60
36374;DHT22;22399;51.346;12.372;2023-09-08T02:05:16;17.10;83.80
36374;DHT22;22399;51.346;12.372;2023-09-08T02:07:45;17.10;83.90
36374;DHT22;22399;51.346;12.372;2023-09-08T02:10:13;17.10;84.00
36374;DHT22;22399;51.346;12.372;2023-09-08T02:12:42;17.10;84.20
36374;DHT22;22399;51.346;12.372;2023-09-08T02:15:11;17.00;85.00
36374;DHT22;22399;51.346;12.372;2023-09-08T02:17:43;17.00;84.40
36374;DHT22;22399;51.346;12.372;2023-09-08T02:20:11;17.00;84.60
36374;DHT22;22399;51.346;12.372;2023-09-08T02:22:40;17.00;84.70
36374;DHT22;22399;51.346;12.372;2023-09-08T02:25:08;16.90;84.70
36374;DHT22;22399;51.346;12.372;2023-09-08T02:27:38;16.90;84.80
36374;DHT22;22399;51.346;12.372;2023-09-08T02:30:07;16.80;84.90
36374;DHT22;22399;51.346;12.372;2023-09-08T02:32:37;16.80;85.20
36374;DHT22;22399;51.346;12.372;2023-09-08T02:35:10;16.80;85.40
36374;DHT22;22399;51.346;12.372;2023-09-08T02:37:39;16.80;85.60
36374;DHT22;22399;51.346;12.372;2023-09-08T02:40:08;16.80;85.80
36374;DHT22;22399;51.346;12.372;2023-09-08T02:42:38;16.80;86.60
36374;DHT22;22399;51.346;12.372;2023-09-08T02:45:07;16.80;86.00
36374;DHT22;22399;51.346;12.372;2023-09-08T02:47:37;16.80;86.10
36374;DHT22;22399;51.346;12.372;2023-09-08T02:50:06;16.80;86.20
36374;DHT22;22399;51.346;12.372;2023-09-08T02:52:35;16.80;86.20
36374;DHT22;22399;51.346;12.372;2023-09-08T02:55:03;16.80;86.50
36374;DHT22;22399;51.346;12.372;2023-09-08T02:57:31;16.80;86.50
36374;DHT22;22399;51.346;12.372;2023-09-08T02:59:59;16.80;86.50
36374;DHT22;22399;51.346;12.372;2023-09-08T03:02:28;16.80;86.70
36374;DHT22;22399;51.346;12.372;2023-09-08T03:04:59;16.80;86.70
36374;DHT22;22399;51.346;12.372;2023-09-08T03:07:28;16.80;86.80
36374;DHT22;22399;51.346;12.372;2023-09-08T03:09:57;16.90;86.80
36374;DHT22;22399;51.346;12.372;2023-09-08T03:12:25;16.90;86.80
36374;DHT22;22399;51.346;12.372;2023-09-08T03:14:54;17.00;86.60
36374;DHT22;22399;51.346;12.372;2023-09-08T03:17:22;17.00;86.30
36374;DHT22;22399;51.346;12.372;2023-09-08T03:19:51;17.00;86.30
36374;DHT22;22399;51.346;12.372;2023-09-08T03:22:20;17.00;86.10
36374;DHT22;22399;51.346;12.372;2023-09-08T03:24:49;17.00;86.10
36374;DHT22;22399;51.346;12.372;2023-09-08T03:27:17;17.00;86.20
36374;DHT22;22399;51.346;12.372;2023-09-08T03:29:45;16.90;86.20
36374;DHT22;22399;51.346;12.372;2023-09-08T03:32:13;16.90;86.30
36374;DHT22;22399;51.346;12.372;2023-09-08T03:34:42;17.00;86.30
36374;DHT22;22399;51.346;12.372;2023-09-08T03:37:10;16.90;86.10
36374;DHT22;22399;51.346;12.372;2023-09-08T03:39:40;16.90;86.20
36374;DHT22;22399;51.346;12.372;2023-09-08T03:42:09;16.80;86.40
36374;DHT22;22399;51.346;12.372;2023-09-08T03:44:37;16.80;86.40
36374;DHT22;22399;51.346;12.372;2023-09-08T03:47:06;16.80;86.60
36374;DHT22;22399;51.346;12.372;2023-09-08T03:49:35;16.70;86.70
36374;DHT22;22399;51.346;12.372;2023-09-08T03:52:04;16.70;87.00
36374;DHT22;22399;51.346;12.372;2023-09-08T03:54:32;16.70;87.10
36374;DHT22;22399;51.346;12.372;2023-09-08T03:57:02;16.70;87.20
36374;DHT22;22399;51.346;12.372;2023-09-08T03:59:31;16.70;87.10
36374;DHT22;22399;51.346;12.372;2023-09-08T04:02:00;16.70;87.30
36374;DHT22;22399;51.346;12.372;2023-09-08T04:04:28;16.70;87.40
36374;DHT22;22399;51.346;12.372;2023-09-08T04:06:57;16.60;87.20
36374;DHT22;22399;51.346;12.372;2023-09-08T04:09:25;16.60;87.40
36374;DHT22;22399;51.346;12.372;2023-09-08T04:11:55;16.50;87.40
36374;DHT22;22399;51.346;12.372;2023-09-08T04:14:25;16.50;87.60
36374;DHT22;22399;51.346;12.372;2023-09-08T04:16:55;16.40;87.70
36374;DHT22;22399;51.346;12.372;2023-09-08T04:19:23;16.40;87.70
36374;DHT22;22399;51.346;12.372;2023-09-08T04:21:51;16.40;87.80
36374;DHT22;22399;51.346;12.372;2023-09-08T04:24:20;16.40;88.00
36374;DHT22;22399;51.346;12.372;2023-09-08T04:26:49;16.40;88.10
36374;DHT22;22399;51.346;12.372;2023-09-08T04:29:18;16.30;88.10
36374;DHT22;22399;51.346;12.372;2023-09-08T04:31:48;16.30;88.20
36374;DHT22;22399;51.346;12.372;2023-09-08T04:34:16;16.30;88.10
36374;DHT22;22399;51.346;12.372;2023-09-08T04:36:45;16.30;88.20
36374;DHT22;22399;51.346;12.372;2023-09-08T04:39:13;16.30;88.20
36374;DHT22;22399;51.346;12.372;2023-09-08T04:41:42;16.30;88.20
36374;DHT22;22399;51.346;12.372;2023-09-08T04:44:10;16.40;88.20
36374;DHT22;22399;51.346;12.372;2023-09-08T04:46:39;16.30;88.10
36374;DHT22;22399;51.346;12.372;2023-09-08T04:49:09;16.30;88.10
36374;DHT22;22399;51.346;12.372;2023-09-08T04:51:37;16.30;88.00
36374;DHT22;22399;51.346;12.372;2023-09-08T04:54:05;16.30;88.10
36374;DHT22;22399;51.346;12.372;2023-09-08T04:56:34;16.30;88.10
36374;DHT22;22399;51.346;12.372;2023-09-08T04:59:03;16.30;88.20
36374;DHT22;22399;51.346;12.372;2023-09-08T05:01:32;16.40;88.20
36374;DHT22;22399;51.346;12.372;2023-09-08T05:04:01;16.30;88.10
36374;DHT22;22399;51.346;12.372;2023-09-08T05:06:32;16.40;88.20
36374;DHT22;22399;51.346;12.372;2023-09-08T05:09:01;16.50;88.30
36374;DHT22;22399;51.346;12.372;2023-09-08T05:11:30;16.50;88.10
36374;DHT22;22399;51.346;12.372;2023-09-08T05:13:59;16.50;88.00
36374;DHT22;22399;51.346;12.372;2023-09-08T05:16:27;16.60;88.00
36374;DHT22;22399;51.346;12.372;2023-09-08T05:19:09;16.60;87.90
36374;DHT22;22399;51.346;12.372;2023-09-08T05:21:39;16.70;87.70
36374;DHT22;22399;51.346;12.372;2023-09-08T05:24:08;16.70;87.50
36374;DHT22;22399;51.346;12.372;2023-09-08T05:26:38;16.80;87.40
36374;DHT22;22399;51.346;12.372;2023-09-08T05:29:06;16.90;87.10
36374;DHT22;22399;51.346;12.372;2023-09-08T05:31:35;17.00;86.80
36374;DHT22;22399;51.346;12.372;2023-09-08T05:34:04;17.10;86.50
36374;DHT22;22399;51.346;12.372;2023-09-08T05:36:33;17.30;86.30
36374;DHT22;22399;51.346;12.372;2023-09-08T05:39:04;17.40;85.90
36374;DHT22;22399;51.346;12.372;2023-09-08T05:41:33;17.40;85.50
36374;DHT22;22399;51.346;12.372;2023-09-08T05:44:03;17.50;85.30
36374;DHT22;22399;51.346;12.372;2023-09-08T05:46:31;17.60;84.90
36374;DHT22;22399;51.346;12.372;2023-09-08T05:49:00;17.80;84.90
36374;DHT22;22399;51.346;12.372;2023-09-08T05:51:30;18.20;85.70
36374;DHT22;22399;51.346;12.372;2023-09-08T05:54:00;19.10;84.70
36374;DHT22;22399;51.346;12.372;2023-09-08T05:56:33;20.00;83.20
36374;DHT22;22399;51.346;12.372;2023-09-08T05:59:02;20.70;82.10
36374;DHT22;22399;51.346;12.372;2023-09-08T06:01:31;21.30;80.50
36374;DHT22;22399;51.346;12.372;2023-09-08T06:04:02;21.70;79.20
36374;DHT22;22399;51.346;12.372;2023-09-08T06:06:32;22.10;77.80
36374;DHT22;22399;51.346;12.372;2023-09-08T06:09:00;22.60;76.80
36374;DHT22;22399;51.346;12.372;2023-09-08T06:11:30;22.90;75.60
36374;DHT22;22399;51.346;12.372;2023-09-08T06:13:58;22.90;74.60
36374;DHT22;22399;51.346;12.372;2023-09-08T06:16:32;23.00;74.40
36374;DHT22;22399;51.346;12.372;2023-09-08T06:19:00;23.40;73.80
36374;DHT22;22399;51.346;12.372;2023-09-08T06:21:30;23.60;72.80
36374;DHT22;22399;51.346;12.372;2023-09-08T06:23:59;23.70;73.00
36374;DHT22;22399;51.346;12.372;2023-09-08T06:26:28;24.00;73.00
36374;DHT22;22399;51.346;12.372;2023-09-08T06:28:58;24.20;72.40
36374;DHT22;22399;51.346;12.372;2023-09-08T06:31:27;24.40;71.60
36374;DHT22;22399;51.346;12.372;2023-09-08T06:33:55;24.60;71.30
36374;DHT22;22399;51.346;12.372;2023-09-08T06:36:25;24.80;70.90
36374;DHT22;22399;51.346;12.372;2023-09-08T06:38:53;25.30;70.40
36374;DHT22;22399;51.346;12.372;2023-09-08T06:41:21;25.60;69.50
36374;DHT22;22399;51.346;12.372;2023-09-08T06:43:52;25.50;68.40
36374;DHT22;22399;51.346;12.372;2023-09-08T06:46:23;25.50;68.20
36374;DHT22;22399;51.346;12.372;2023-09-08T06:48:52;25.60;68.30
36374;DHT22;22399;51.346;12.372;2023-09-08T06:51:21;25.50;67.90
36374;DHT22;22399;51.346;12.372;2023-09-08T06:53:54;25.60;68.00
36374;DHT22;22399;51.346;12.372;2023-09-08T06:56:27;25.80;67.60
36374;DHT22;22399;51.346;12.372;2023-09-08T06:58:57;25.90;66.80
36374;DHT22;22399;51.346;12.372;2023-09-08T07:01:28;26.00;67.00
36374;DHT22;22399;51.346;12.372;2023-09-08T07:03:57;26.10;66.70
36374;DHT22;22399;51.346;12.372;2023-09-08T07:06:26;26.40;66.20
36374;DHT22;22399;51.346;12.372;2023-09-08T07:08:56;26.50;65.60
36374;DHT22;22399;51.346;12.372;2023-09-08T07:11:25;26.70;65.30
36374;DHT22;22399;51.346;12.372;2023-09-08T07:13:53;27.00;65.10
36374;DHT22;22399;51.346;12.372;2023-09-08T07:16:22;27.00;65.10
36374;DHT22;22399;51.346;12.372;2023-09-08T07:18:52;26.90;64.50
36374;DHT22;22399;51.346;12.372;2023-09-08T07:21:20;26.70;65.40
36374;DHT22;22399;51.346;12.372;2023-09-08T07:23:49;27.00;64.60
36374;DHT22;22399;51.346;12.372;2023-09-08T07:26:18;26.70;64.80
36374;DHT22;22399;51.346;12.372;2023-09-08T07:28:46;26.50;64.80
36374;DHT22;22399;51.346;12.372;2023-09-08T07:31:16;26.30;65.10
36374;DHT22;22399;51.346;12.372;2023-09-08T07:33:47;26.50;65.40
36374;DHT22;22399;51.346;12.372;2023-09-08T07:36:17;27.00;64.60
36374;DHT22;22399;51.346;12.372;2023-09-08T07:38:46;26.90;64.00
36374;DHT22;22399;51.346;12.372;2023-09-08T07:41:15;26.80;64.20
36374;DHT22;22399;51.346;12.372;2023-09-08T07:43:43;26.90;64.00
36374;DHT22;22399;51.346;12.372;2023-09-08T07:46:16;26.90;63.90
36374;DHT22;22399;51.346;12.372;2023-09-08T07:48:44;27.00;63.50
36374;DHT22;22399;51.346;12.372;2023-09-08T07:51:12;27.10;62.90
36374;DHT22;22399;51.346;12.372;2023-09-08T07:53:42;27.00;62.60
36374;DHT22;22399;51.346;12.372;2023-09-08T07:56:10;27.10;62.20
36374;DHT22;22399;51.346;12.372;2023-09-08T07:58:39;27.30;62.00
36374;DHT22;22399;51.346;12.372;2023-09-08T08:01:07;27.20;61.60
36374;DHT22;22399;51.346;12.372;2023-09-08T08:03:35;27.00;61.20
36374;DHT22;22399;51.346;12.372;2023-09-08T08:06:04;26.80;61.20
36374;DHT22;22399;51.346;12.372;2023-09-08T08:08:33;27.10;61.20
36374;DHT22;22399;51.346;12.372;2023-09-08T08:11:10;27.60;60.70
36374;DHT22;22399;51.346;12.372;2023-09-08T08:13:39;27.70;60.30
36374;DHT22;22399;51.346;12.372;2023-09-08T08:16:07;27.80;59.50
36374;DHT22;22399;51.346;12.372;2023-09-08T08:18:36;27.70;59.20
36374;DHT22;22399;51.346;12.372;2023-09-08T08:21:05;27.80;59.20
36374;DHT22;22399;51.346;12.372;2023-09-08T08:23:33;28.10;59.00
36374;DHT22;22399;51.346;12.372;2023-09-08T08:26:03;28.20;58.70
36374;DHT22;22399;51.346;12.372;2023-09-08T08:28:33;28.50;58.40
36374;DHT22;22399;51.346;12.372;2023-09-08T08:31:02;28.60;58.30
36374;DHT22;22399;51.346;12.372;2023-09-08T08:33:31;28.70;58.10
36374;DHT22;22399;51.346;12.372;2023-09-08T08:36:00;28.80;58.00
36374;DHT22;22399;51.346;12.372;2023-09-08T08:38:28;29.00;57.80
36374;DHT22;22399;51.346;12.372;2023-09-08T08:41:02;29.00;57.40
36374;DHT22;22399;51.346;12.372;2023-09-08T08:43:33;28.80;57.50
36374;DHT22;22399;51.346;12.372;2023-09-08T08:46:02;28.50;57.80
36374;DHT22;22399;51.346;12.372;2023-09-08T08:48:32;28.50;57.80
36374;DHT22;22399;51.346;12.372;2023-09-08T08:51:02;28.60;57.80
36374;DHT22;22399;51.346;12.372;2023-09-08T08:53:31;28.80;57.60
36374;DHT22;22399;51.346;12.372;2023-09-08T08:56:01;29.20;57.20
36374;DHT22;22399;51.346;12.372;2023-09-08T08:58:30;29.50;56.80
36374;DHT22;22399;51.346;12.372;2023-09-08T09:01:02;29.50;56.40
36374;DHT22;22399;51.346;12.372;2023-09-08T09:03:31;29.60;56.00
36374;DHT22;22399;51.346;12.372;2023-09-08T09:06:01;29.80;55.80
36374;DHT22;22399;51.346;12.372;2023-09-08T09:08:31;30.20;55.20
36374;DHT22;22399;51.346;12.372;2023-09-08T09:11:01;30.60;54.70
36374;DHT22;22399;51.346;12.372;2023-09-08T09:13:30;30.50;54.20
36374;DHT22;22399;51.346;12.372;2023-09-08T09:15:59;30.60;54.30
36374;DHT22;22399;51.346;12.372;2023-09-08T09:18:32;30.90;53.60
36374;DHT22;22399;51.346;12.372;2023-09-08T09:21:01;30.70;53.60
36374;DHT22;22399;51.346;12.372;2023-09-08T09:23:31;31.00;53.30
36374;DHT22;22399;51.346;12.372;2023-09-08T09:26:01;30.70;53.10
36374;DHT22;22399;51.346;12.372;2023-09-08T09:28:31;30.60;53.00
36374;DHT22;22399;51.346;12.372;2023-09-08T09:31:00;30.60;53.00
36374;DHT22;22399;51.346;12.372;2023-09-08T09:33:31;30.70;52.70
36374;DHT22;22399;51.346;12.372;2023-09-08T09:36:00;30.80;52.30
36374;DHT22;22399;51.346;12.372;2023-09-08T09:38:28;31.00;52.10
36374;DHT22;22399;51.346;12.372;2023-09-08T09:40:57;31.30;51.90
36374;DHT22;22399;51.346;12.372;2023-09-08T09:43:27;31.30;51.50
36374;DHT22;22399;51.346;12.372;2023-09-08T09:45:57;31.10;51.40
36374;DHT22;22399;51.346;12.372;2023-09-08T09:48:27;31.10;51.30
36374;DHT22;22399;51.346;12.372;2023-09-08T09:50:57;31.30;50.80
36374;DHT22;22399;51.346;12.372;2023-09-08T09:53:26;31.50;50.40
36374;DHT22;22399;51.346;12.372;2023-09-08T09:55:57;31.20;50.20
36374;DHT22;22399;51.346;12.372;2023-09-08T09:58:26;31.30;50.20
36374;DHT22;22399;51.346;12.372;2023-09-08T10:00:55;31.40;49.90
36374;DHT22;22399;51.346;12.372;2023-09-08T10:03:25;31.50;49.60
36374;DHT22;22399;51.346;12.372;2023-09-08T10:05:54;31.60;49.20
36374;DHT22;22399;51.346;12.372;2023-09-08T10:08:25;31.40;48.70
36374;DHT22;22399;51.346;12.372;2023-09-08T10:10:54;31.40;48.70
36374;DHT22;22399;51.346;12.372;2023-09-08T10:13:27;31.50;48.70
36374;DHT22;22399;51.346;12.372;2023-09-08T10:15:57;31.50;48.50
36374;DHT22;22399;51.346;12.372;2023-09-08T10:18:26;31.80;48.10
36374;DHT22;22399;51.346;12.372;2023-09-08T10:20:58;31.80;47.60
36374;DHT22;22399;51.346;12.372;2023-09-08T10:23:35;31.80;47.80
36374;DHT22;22399;51.346;12.372;2023-09-08T10:26:09;31.80;47.50
36374;DHT22;22399;51.346;12.372;2023-09-08T10:28:38;31.90;47.30
36374;DHT22;22399;51.346;12.372;2023-09-08T10:31:08;31.80;46.70
36374;DHT22;22399;51.346;12.372;2023-09-08T10:33:42;31.40;47.00
36374;DHT22;22399;51.346;12.372;2023-09-08T10:36:11;31.20;47.00
36374;DHT22;22399;51.346;12.372;2023-09-08T10:38:42;31.40;46.90
36374;DHT22;22399;51.346;12.372;2023-09-08T10:41:28;31.30;46.90
36374;DHT22;22399;51.346;12.372;2023-09-08T10:44:02;31.70;46.50
36374;DHT22;22399;51.346;12.372;2023-09-08T10:46:32;31.70;46.10
36374;DHT22;22399;51.346;12.372;2023-09-08T10:49:03;31.80;45.80
36374;DHT22;22399;51.346;12.372;2023-09-08T10:51:34;32.00;45.60
36374;DHT22;22399;51.346;12.372;2023-09-08T10:54:07;31.80;45.20
36374;DHT22;22399;51.346;12.372;2023-09-08T10:56:48;31.60;45.20
36374;DHT22;22399;51.346;12.372;2023-09-08T10:59:22;31.60;45.20
36374;DHT22;22399;51.346;12.372;2023-09-08T11:01:54;31.60;44.90
36374;DHT22;22399;51.346;12.372;2023-09-08T11:04:24;31.50;44.60
36374;DHT22;22399;51.346;12.372;2023-09-08T11:06:56;31.40;44.30
36374;DHT22;22399;51.346;12.372;2023-09-08T11:09:26;31.10;44.10
36374;DHT22;22399;51.346;12.372;2023-09-08T11:11:55;31.10;44.30
36374;DHT22;22399;51.346;12.372;2023-09-08T11:14:25;31.20;44.10
36374;DHT22;22399;51.346;12.372;2023-09-08T11:16:54;31.20;44.10
36374;DHT22;22399;51.346;12.372;2023-09-08T11:19:42;31.60;44.10
36374;DHT22;22399;51.346;12.372;2023-09-08T11:22:11;31.90;43.60
36374;DHT22;22399;51.346;12.372;2023-09-08T11:24:43;32.00;43.30
36374;DHT22;22399;51.346;12.372;2023-09-08T11:27:11;32.10;43.20
36374;DHT22;22399;51.346;12.372;2023-09-08T11:29:40;32.20;42.80
36374;DHT22;22399;51.346;12.372;2023-09-08T11:32:08;32.30;42.60
36374;DHT22;22399;51.346;12.372;2023-09-08T11:34:37;32.10;42.90
36374;DHT22;22399;51.346;12.372;2023-09-08T11:37:09;32.20;42.60
36374;DHT22;22399;51.346;12.372;2023-09-08T11:39:38;32.20;42.50
36374;DHT22;22399;51.346;12.372;2023-09-08T11:42:09;32.00;42.50
36374;DHT22;22399;51.346;12.372;2023-09-08T11:44:38;32.10;42.40
36374;DHT22;22399;51.346;12.372;2023-09-08T11:47:07;32.00;42.40
36374;DHT22;22399;51.346;12.372;2023-09-08T11:49:37;32.30;42.40
36374;DHT22;22399;51.346;12.372;2023-09-08T11:52:06;32.40;42.10
36374;DHT22;22399;51.346;12.372;2023-09-08T11:54:36;32.30;41.90
36374;DHT22;22399;51.346;12.372;2023-09-08T11:57:23;32.10;41.80
36374;DHT22;22399;51.346;12.372;2023-09-08T11:59:52;32.50;41.90
36374;DHT22;22399;51.346;12.372;2023-09-08T12:02:21;32.60;41.70
36374;DHT22;22399;51.346;12.372;2023-09-08T12:04:52;32.70;41.30
36374;DHT22;22399;51.346;12.372;2023-09-08T12:07:21;32.50;41.10
36374;DHT22;22399;51.346;12.372;2023-09-08T12:09:50;32.40;41.10
36374;DHT22;22399;51.346;12.372;2023-09-08T12:12:18;32.20;41.40
36374;DHT22;22399;51.346;12.372;2023-09-08T12:14:48;32.30;41.20
36374;DHT22;22399;51.346;12.372;2023-09-08T12:17:16;32.40;41.00
36374;DHT22;22399;51.346;12.372;2023-09-08T12:19:45;32.30;40.80
36374;DHT22;22399;51.346;12.372;2023-09-08T12:22:13;32.30;40.60
36374;DHT22;22399;51.346;12.372;2023-09-08T12:24:49;32.30;40.60
36374;DHT22;22399;51.346;12.372;2023-09-08T12:27:18;32.00;40.80
36374;DHT22;22399;51.346;12.372;2023-09-08T12:29:58;32.10;40.90
36374;DHT22;22399;51.346;12.372;2023-09-08T12:32:30;32.20;40.40
36374;DHT22;22399;51.346;12.372;2023-09-08T12:35:00;32.10;40.50
36374;DHT22;22399;51.346;12.372;2023-09-08T12:37:33;32.30;40.50
36374;DHT22;22399;51.346;12.372;2023-09-08T12:40:02;32.60;40.40
36374;DHT22;22399;51.346;12.372;2023-09-08T12:42:31;32.80;40.20
36374;DHT22;22399;51.346;12.372;2023-09-08T12:45:06;33.00;40.10
36374;DHT22;22399;51.346;12.372;2023-09-08T12:47:35;33.10;39.80
36374;DHT22;22399;51.346;12.372;2023-09-08T12:50:04;32.90;39.80
36374;DHT22;22399;51.346;12.372;2023-09-08T12:52:33;33.10;39.70
36374;DHT22;22399;51.346;12.372;2023-09-08T12:55:01;33.00;39.30
36374;DHT22;22399;51.346;12.372;2023-09-08T12:57:29;33.30;39.30
36374;DHT22;22399;51.346;12.372;2023-09-08T12:59:58;33.20;38.90
36374;DHT22;22399;51.346;12.372;2023-09-08T13:02:28;33.20;38.70
36374;DHT22;22399;51.346;12.372;2023-09-08T13:04:56;33.10;38.50
36374;DHT22;22399;51.346;12.372;2023-09-08T13:07:25;33.30;38.50
36374;DHT22;22399;51.346;12.372;2023-09-08T13:09:54;33.30;38.30
36374;DHT22;22399;51.346;12.372;2023-09-08T13:12:22;33.20;38.20
36374;DHT22;22399;51.346;12.372;2023-09-08T13:14:51;33.30;38.10
36374;DHT22;22399;51.346;12.372;2023-09-08T13:17:19;33.30;38.10
36374;DHT22;22399;51.346;12.372;2023-09-08T13:19:48;33.50;38.30
36374;DHT22;22399;51.346;12.372;2023-09-08T13:22:17;33.60;38.10
36374;DHT22;22399;51.346;12.372;2023-09-08T13:24:45;33.80;37.90
36374;DHT22;22399;51.346;12.372;2023-09-08T13:27:13;34.20;37.70
36374;DHT22;22399;51.346;12.372;2023-09-08T13:29:44;34.10;37.50
36374;DHT22;22399;51.346;12.372;2023-09-08T13:32:12;34.10;37.20
36374;DHT22;22399;51.346;12.372;2023-09-08T13:34:41;34.10;37.20
36374;DHT22;22399;51.346;12.372;2023-09-08T13:37:13;34.10;37.00
36374;DHT22;22399;51.346;12.372;2023-09-08T13:39:41;33.70;37.10
36374;DHT22;22399;51.346;12.372;2023-09-08T13:42:10;33.90;37.30
36374;DHT22;22399;51.346;12.372;2023-09-08T13:44:38;33.80;37.00
36374;DHT22;22399;51.346;12.372;2023-09-08T13:47:08;33.70;36.90
36374;DHT22;22399;51.346;12.372;2023-09-08T13:49:36;33.80;36.80
36374;DHT22;22399;51.346;12.372;2023-09-08T13:52:06;33.80;36.70
36374;DHT22;22399;51.346;12.372;2023-09-08T13:54:36;33.70;36.70
36374;DHT22;22399;51.346;12.372;2023-09-08T13:57:06;34.00;36.50
36374;DHT22;22399;51.346;12.372;2023-09-08T13:59:35;34.00;36.50
36374;DHT22;22399;51.346;12.372;2023-09-08T14:02:08;33.70;36.00
36374;DHT22;22399;51.346;12.372;2023-09-08T14:04:56;33.70;35.90
36374;DHT22;22399;51.346;12.372;2023-09-08T14:07:29;33.40;36.10
36374;DHT22;22399;51.346;12.372;2023-09-08T14:10:02;33.40;36.10
36374;DHT22;22399;51.346;12.372;2023-09-08T14:12:54;33.30;36.10
36374;DHT22;22399;51.346;12.372;2023-09-08T14:15:22;33.50;35.90
36374;DHT22;22399;51.346;12.372;2023-09-08T14:17:50;33.20;35.80
36374;DHT22;22399;51.346;12.372;2023-09-08T14:20:20;32.60;36.60
36374;DHT22;22399;51.346;12.372;2023-09-08T14:22:48;32.30;37.10
36374;DHT22;22399;51.346;12.372;2023-09-08T14:25:18;31.90;37.40
36374;DHT22;22399;51.346;12.372;2023-09-08T14:27:46;31.80;37.80
36374;DHT22;22399;51.346;12.372;2023-09-08T14:30:14;31.60;37.80
36374;DHT22;22399;51.346;12.372;2023-09-08T14:32:43;31.40;37.80
36374;DHT22;22399;51.346;12.372;2023-09-08T14:35:11;31.20;37.90
36374;DHT22;22399;51.346;12.372;2023-09-08T14:37:40;31.10;37.80
36374;DHT22;22399;51.346;12.372;2023-09-08T14:40:08;31.00;37.80
36374;DHT22;22399;51.346;12.372;2023-09-08T14:42:38;31.00;37.80
36374;DHT22;22399;51.346;12.372;2023-09-08T14:45:08;31.00;37.80
36374;DHT22;22399;51.346;12.372;2023-09-08T14:47:36;30.90;37.60
36374;DHT22;22399;51.346;12.372;2023-09-08T14:50:05;30.90;37.60
36374;DHT22;22399;51.346;12.372;2023-09-08T14:52:34;30.80;37.50
36374;DHT22;22399;51.346;12.372;2023-09-08T14:55:03;30.70;37.60
36374;DHT22;22399;51.346;12.372;2023-09-08T14:57:31;30.80;37.80
36374;DHT22;22399;51.346;12.372;2023-09-08T15:00:02;30.80;37.60
36374;DHT22;22399;51.346;12.372;2023-09-08T15:02:31;30.70;37.50
36374;DHT22;22399;51.346;12.372;2023-09-08T15:05:00;30.50;37.50
36374;DHT22;22399;51.346;12.372;2023-09-08T15:07:28;30.50;37.60
36374;DHT22;22399;51.346;12.372;2023-09-08T15:09:56;30.40;37.50
36374;DHT22;22399;51.346;12.372;2023-09-08T15:12:24;30.30;37.60
36374;DHT22;22399;51.346;12.372;2023-09-08T15:14:53;30.30;37.60
36374;DHT22;22399;51.346;12.372;2023-09-08T15:17:22;30.30;37.60
36374;DHT22;22399;51.346;12.372;2023-09-08T15:19:50;30.30;37.50
36374;DHT22;22399;51.346;12.372;2023-09-08T15:22:19;30.20;37.50
36374;DHT22;22399;51.346;12.372;2023-09-08T15:24:47;30.10;37.50
36374;DHT22;22399;51.346;12.372;2023-09-08T15:27:15;30.10;37.60
36374;DHT22;22399;51.346;12.372;2023-09-08T15:29:43;30.00;37.60